sensor_id;sensor_type;location;lat;lon;timestamp;pressure;altitude;pressure_sealevel;temperature;humidity
57568;BME280;43403;51.948;5.922;2022-12-07T00:01:28;101737.19;;;4.85;100.00
57568;BME280;43403;51.948;5.922;2022-12-07T00:03:58;101736.16;;;4.88;100.00
57568;BME280;43403;51.948;5.922;2022-12-07T00:06:34;101735.19;;;4.90;100.00
57568;BME280;43403;51.948;5.922;2022-12-07T00:09:03;101732.81;;;4.86;100.00
57568;BME280;43403;51.948;5.922;2022-12-07T00:11:29;101733.00;;;4.83;100.00
57568;BME280;43403;51.948;5.922;2022-12-07T00:13:57;101730.13;;;4.87;100.00
57568;BME280;43403;51.948;5.922;2022-12-07T00:16:27;101736.28;;;4.86;100.00
57568;BME280;43403;51.948;5.922;2022-12-07T00:18:54;101735.84;;;4.78;100.00
57568;BME280;43403;51.948;5.922;2022-12-07T00:21:24;101728.16;;;4.77;100.00
57568;BME280;43403;51.948;5.922;2022-12-07T00:23:52;101726.66;;;4.72;100.00
57568;BME280;43403;51.948;5.922;2022-12-07T00:26:21;101731.00;;;4.72;100.00
57568;BME280;43403;51.948;5.922;2022-12-07T00:28:49;101728.66;;;4.67;100.00
57568;BME280;43403;51.948;5.922;2022-12-07T00:31:20;101736.53;;;4.66;100.00
57568;BME280;43403;51.948;5.922;2022-12-07T00:33:48;101732.72;;;4.57;100.00
57568;BME280;43403;51.948;5.922;2022-12-07T00:36:16;101726.84;;;4.53;100.00
57568;BME280;43403;51.948;5.922;2022-12-07T00:38:51;101722.81;;;4.48;100.00
57568;BME280;43403;51.948;5.922;2022-12-07T00:41:20;101716.94;;;4.44;100.00
57568;BME280;43403;51.948;5.922;2022-12-07T00:43:47;101716.13;;;4.44;100.00
57568;BME280;43403;51.948;5.922;2022-12-07T00:46:14;101717.28;;;4.38;100.00
57568;BME280;43403;51.948;5.922;2022-12-07T00:48:41;101712.09;;;4.38;100.00
57568;BME280;43403;51.948;5.922;2022-12-07T00:51:09;101710.31;;;4.39;100.00
57568;BME280;43403;51.948;5.922;2022-12-07T00:53:37;101704.38;;;4.36;100.00
57568;BME280;43403;51.948;5.922;2022-12-07T00:56:09;101703.72;;;4.33;100.00
57568;BME280;43403;51.948;5.922;2022-12-07T00:58:37;101709.84;;;4.32;100.00
57568;BME280;43403;51.948;5.922;2022-12-07T01:01:05;101702.81;;;4.34;100.00
57568;BME280;43403;51.948;5.922;2022-12-07T01:03:32;101707.41;;;4.29;100.00
57568;BME280;43403;51.948;5.922;2022-12-07T01:05:59;101705.22;;;4.21;100.00
57568;BME280;43403;51.948;5.922;2022-12-07T01:08:27;101705.31;;;4.20;100.00
57568;BME280;43403;51.948;5.922;2022-12-07T01:11:04;101703.78;;;4.15;100.00
57568;BME280;43403;51.948;5.922;2022-12-07T01:13:31;101708.47;;;4.09;100.00
57568;BME280;43403;51.948;5.922;2022-12-07T01:15:59;101705.22;;;4.05;100.00
57568;BME280;43403;51.948;5.922;2022-12-07T01:18:27;101702.88;;;4.01;100.00
57568;BME280;43403;51.948;5.922;2022-12-07T01:21:02;101712.56;;;3.97;100.00
57568;BME280;43403;51.948;5.922;2022-12-07T01:23:30;101712.06;;;3.90;100.00
57568;BME280;43403;51.948;5.922;2022-12-07T01:25:58;101710.38;;;3.89;100.00
57568;BME280;43403;51.948;5.922;2022-12-07T01:28:25;101716.59;;;3.87;100.00
57568;BME280;43403;51.948;5.922;2022-12-07T01:31:00;101721.84;;;3.85;100.00
57568;BME280;43403;51.948;5.922;2022-12-07T01:33:28;101720.09;;;3.86;100.00
57568;BME280;43403;51.948;5.922;2022-12-07T01:36:07;101718.34;;;3.86;100.00
57568;BME280;43403;51.948;5.922;2022-12-07T01:38:35;101717.88;;;3.78;100.00
57568;BME280;43403;51.948;5.922;2022-12-07T01:41:02;101723.75;;;3.82;100.00
57568;BME280;43403;51.948;5.922;2022-12-07T01:43:32;101723.75;;;3.82;100.00
57568;BME280;43403;51.948;5.922;2022-12-07T01:46:00;101714.88;;;3.70;100.00
57568;BME280;43403;51.948;5.922;2022-12-07T01:48:37;101712.13;;;3.73;100.00
57568;BME280;43403;51.948;5.922;2022-12-07T01:51:09;101713.03;;;3.72;100.00
57568;BME280;43403;51.948;5.922;2022-12-07T01:53:41;101710.50;;;3.70;100.00
57568;BME280;43403;51.948;5.922;2022-12-07T01:56:12;101707.75;;;3.73;100.00
57568;BME280;43403;51.948;5.922;2022-12-07T01:58:42;101706.31;;;3.68;100.00
57568;BME280;43403;51.948;5.922;2022-12-07T02:01:09;101697.84;;;3.64;100.00
57568;BME280;43403;51.948;5.922;2022-12-07T02:03:41;101709.84;;;3.67;100.00
57568;BME280;43403;51.948;5.922;2022-12-07T02:06:09;101705.50;;;3.67;100.00
57568;BME280;43403;51.948;5.922;2022-12-07T02:08:37;101703.97;;;3.63;100.00
57568;BME280;43403;51.948;5.922;2022-12-07T02:11:05;101697.28;;;3.59;100.00
57568;BME280;43403;51.948;5.922;2022-12-07T02:13:36;101702.53;;;3.58;100.00
57568;BME280;43403;51.948;5.922;2022-12-07T02:18:49;101699.50;;;3.49;100.00
57568;BME280;43403;51.948;5.922;2022-12-07T02:24:09;101698.59;;;3.33;100.00
57568;BME280;43403;51.948;5.922;2022-12-07T02:29:55;101699.44;;;3.33;100.00
57568;BME280;43403;51.948;5.922;2022-12-07T02:32:33;101703.94;;;3.30;100.00
57568;BME280;43403;51.948;5.922;2022-12-07T02:35:31;101715.22;;;3.29;100.00
57568;BME280;43403;51.948;5.922;2022-12-07T02:38:02;101717.00;;;3.28;100.00
57568;BME280;43403;51.948;5.922;2022-12-07T02:40:41;101707.69;;;3.24;100.00
57568;BME280;43403;51.948;5.922;2022-12-07T02:43:27;101708.53;;;3.25;100.00
57568;BME280;43403;51.948;5.922;2022-12-07T02:46:04;101704.25;;;3.24;100.00
57568;BME280;43403;51.948;5.922;2022-12-07T02:48:33;101712.03;;;3.24;100.00
57568;BME280;43403;51.948;5.922;2022-12-07T02:51:00;101696.88;;;3.16;100.00
57568;BME280;43403;51.948;5.922;2022-12-07T02:53:41;101703.56;;;3.20;100.00
57568;BME280;43403;51.948;5.922;2022-12-07T02:56:27;101704.66;;;3.16;100.00
57568;BME280;43403;51.948;5.922;2022-12-07T03:02:06;101701.38;;;3.12;100.00
57568;BME280;43403;51.948;5.922;2022-12-07T03:08:02;101704.97;;;3.10;100.00
57568;BME280;43403;51.948;5.922;2022-12-07T03:13:14;101697.31;;;3.07;100.00
57568;BME280;43403;51.948;5.922;2022-12-07T03:15:51;101704.25;;;3.06;100.00
57568;BME280;43403;51.948;5.922;2022-12-07T03:18:22;101711.03;;;3.09;100.00
57568;BME280;43403;51.948;5.922;2022-12-07T03:20:55;101707.44;;;3.11;100.00
57568;BME280;43403;51.948;5.922;2022-12-07T03:23:25;101699.91;;;3.07;100.00
57568;BME280;43403;51.948;5.922;2022-12-07T03:25:55;101712.56;;;3.13;100.00
57568;BME280;43403;51.948;5.922;2022-12-07T03:28:31;101700.53;;;3.12;100.00
57568;BME280;43403;51.948;5.922;2022-12-07T03:31:05;101708.38;;;3.10;100.00
57568;BME280;43403;51.948;5.922;2022-12-07T03:36:40;101699.47;;;3.16;100.00
57568;BME280;43403;51.948;5.922;2022-12-07T03:41:48;101686.31;;;3.19;100.00
57568;BME280;43403;51.948;5.922;2022-12-07T03:44:15;101681.91;;;3.21;100.00
57568;BME280;43403;51.948;5.922;2022-12-07T03:49:43;101677.25;;;3.28;100.00
57568;BME280;43403;51.948;5.922;2022-12-07T03:55:19;101687.56;;;3.29;100.00
57568;BME280;43403;51.948;5.922;2022-12-07T03:57:51;101683.72;;;3.36;100.00
57568;BME280;43403;51.948;5.922;2022-12-07T04:00:19;101681.31;;;3.33;100.00
57568;BME280;43403;51.948;5.922;2022-12-07T04:02:46;101680.63;;;3.30;100.00
57568;BME280;43403;51.948;5.922;2022-12-07T04:05:13;101680.63;;;3.30;100.00
57568;BME280;43403;51.948;5.922;2022-12-07T04:07:40;101682.97;;;3.34;100.00
57568;BME280;43403;51.948;5.922;2022-12-07T04:10:07;101674.41;;;3.32;100.00
57568;BME280;43403;51.948;5.922;2022-12-07T04:12:34;101678.22;;;3.25;100.00
57568;BME280;43403;51.948;5.922;2022-12-07T04:15:00;101683.34;;;3.27;100.00
57568;BME280;43403;51.948;5.922;2022-12-07T04:17:26;101674.66;;;3.28;100.00
57568;BME280;43403;51.948;5.922;2022-12-07T04:19:53;101671.13;;;3.29;100.00
57568;BME280;43403;51.948;5.922;2022-12-07T04:22:19;101672.06;;;3.28;100.00
57568;BME280;43403;51.948;5.922;2022-12-07T04:24:46;101678.84;;;3.30;100.00
57568;BME280;43403;51.948;5.922;2022-12-07T04:27:12;101673.81;;;3.27;100.00
57568;BME280;43403;51.948;5.922;2022-12-07T04:29:39;101674.66;;;3.28;100.00
57568;BME280;43403;51.948;5.922;2022-12-07T04:32:05;101677.19;;;3.29;100.00
57568;BME280;43403;51.948;5.922;2022-12-07T04:34:32;101666.19;;;3.24;100.00
57568;BME280;43403;51.948;5.922;2022-12-07T04:36:58;101672.91;;;3.28;100.00
57568;BME280;43403;51.948;5.922;2022-12-07T04:39:27;101666.56;;;3.34;100.00
57568;BME280;43403;51.948;5.922;2022-12-07T04:41:55;101676.88;;;3.35;100.00
57568;BME280;43403;51.948;5.922;2022-12-07T04:44:22;101683.72;;;3.36;100.00
57568;BME280;43403;51.948;5.922;2022-12-07T04:46:50;101683.66;;;3.38;100.00
57568;BME280;43403;51.948;5.922;2022-12-07T04:49:17;101688.91;;;3.36;100.00
57568;BME280;43403;51.948;5.922;2022-12-07T04:51:44;101680.63;;;3.30;100.00
57568;BME280;43403;51.948;5.922;2022-12-07T04:54:12;101677.94;;;3.31;100.00
57568;BME280;43403;51.948;5.922;2022-12-07T04:56:39;101676.56;;;3.24;100.00
57568;BME280;43403;51.948;5.922;2022-12-07T04:59:06;101662.91;;;3.21;100.00
57568;BME280;43403;51.948;5.922;2022-12-07T05:01:33;101663.16;;;3.16;100.00
57568;BME280;43403;51.948;5.922;2022-12-07T05:04:00;101657.66;;;3.22;100.00
57568;BME280;43403;51.948;5.922;2022-12-07T05:06:26;101663.75;;;3.21;100.00
57568;BME280;43403;51.948;5.922;2022-12-07T05:08:53;101664.69;;;3.20;100.00
57568;BME280;43403;51.948;5.922;2022-12-07T05:11:19;101660.31;;;3.21;100.00
57568;BME280;43403;51.948;5.922;2022-12-07T05:16:38;101654.13;;;3.23;100.00
57568;BME280;43403;51.948;5.922;2022-12-07T05:19:06;101656.72;;;3.23;100.00
57568;BME280;43403;51.948;5.922;2022-12-07T05:21:33;101651.47;;;3.25;100.00
57568;BME280;43403;51.948;5.922;2022-12-07T05:24:00;101653.31;;;3.23;100.00
57568;BME280;43403;51.948;5.922;2022-12-07T05:26:26;101663.69;;;3.23;100.00
57568;BME280;43403;51.948;5.922;2022-12-07T05:28:54;101653.31;;;3.23;100.00
57568;BME280;43403;51.948;5.922;2022-12-07T05:31:22;101664.81;;;3.17;100.00
57568;BME280;43403;51.948;5.922;2022-12-07T05:33:49;101658.28;;;3.10;100.00
57568;BME280;43403;51.948;5.922;2022-12-07T05:36:16;101666.84;;;3.12;100.00
57568;BME280;43403;51.948;5.922;2022-12-07T05:38:42;101672.41;;;3.04;100.00
57568;BME280;43403;51.948;5.922;2022-12-07T05:41:12;101674.75;;;3.09;100.00
57568;BME280;43403;51.948;5.922;2022-12-07T05:44:00;101666.34;;;3.04;100.00
57568;BME280;43403;51.948;5.922;2022-12-07T05:46:26;101665.53;;;3.03;100.00
57568;BME280;43403;51.948;5.922;2022-12-07T05:48:53;101660.28;;;3.05;100.00
57568;BME280;43403;51.948;5.922;2022-12-07T05:51:19;101660.28;;;3.05;100.00
57568;BME280;43403;51.948;5.922;2022-12-07T05:53:46;101652.50;;;3.05;100.00
57568;BME280;43403;51.948;5.922;2022-12-07T05:56:12;101655.09;;;3.05;100.00
57568;BME280;43403;51.948;5.922;2022-12-07T05:58:38;101661.28;;;3.02;100.00
57568;BME280;43403;51.948;5.922;2022-12-07T06:01:23;101658.69;;;3.02;100.00
57568;BME280;43403;51.948;5.922;2022-12-07T06:03:50;101663.94;;;3.01;100.00
57568;BME280;43403;51.948;5.922;2022-12-07T06:06:16;101657.22;;;2.96;100.00
57568;BME280;43403;51.948;5.922;2022-12-07T06:08:43;101654.63;;;2.96;100.00
57568;BME280;43403;51.948;5.922;2022-12-07T06:11:09;101654.56;;;2.98;100.00
57568;BME280;43403;51.948;5.922;2022-12-07T06:13:54;101660.66;;;2.97;100.00
57568;BME280;43403;51.948;5.922;2022-12-07T06:16:21;101660.59;;;2.99;100.00
57568;BME280;43403;51.948;5.922;2022-12-07T06:18:47;101659.88;;;2.95;100.00
57568;BME280;43403;51.948;5.922;2022-12-07T06:21:14;101665.13;;;2.93;100.00
57568;BME280;43403;51.948;5.922;2022-12-07T06:23:40;101659.81;;;2.96;100.00
57568;BME280;43403;51.948;5.922;2022-12-07T06:26:07;101666.75;;;2.96;100.00
57568;BME280;43403;51.948;5.922;2022-12-07T06:28:34;101662.63;;;2.92;100.00
57568;BME280;43403;51.948;5.922;2022-12-07T06:31:01;101664.31;;;2.93;100.00
57568;BME280;43403;51.948;5.922;2022-12-07T06:33:28;101657.53;;;2.90;100.00
57568;BME280;43403;51.948;5.922;2022-12-07T06:35:55;101662.84;;;2.87;100.00
57568;BME280;43403;51.948;5.922;2022-12-07T06:38:22;101662.84;;;2.87;100.00
57568;BME280;43403;51.948;5.922;2022-12-07T06:40:48;101667.22;;;2.87;100.00
57568;BME280;43403;51.948;5.922;2022-12-07T06:43:15;101673.91;;;2.91;100.00
57568;BME280;43403;51.948;5.922;2022-12-07T06:45:41;101662.84;;;2.87;100.00
57568;BME280;43403;51.948;5.922;2022-12-07T06:48:08;101662.94;;;2.86;100.00
57568;BME280;43403;51.948;5.922;2022-12-07T06:50:35;101667.28;;;2.85;100.00
57568;BME280;43403;51.948;5.922;2022-12-07T06:53:01;101662.03;;;2.87;100.00
57568;BME280;43403;51.948;5.922;2022-12-07T06:55:27;101668.03;;;2.87;100.00
57568;BME280;43403;51.948;5.922;2022-12-07T06:57:54;101669.72;;;2.88;100.00
57568;BME280;43403;51.948;5.922;2022-12-07T07:00:21;101672.41;;;2.87;100.00
57568;BME280;43403;51.948;5.922;2022-12-07T07:02:47;101673.53;;;2.81;100.00
57568;BME280;43403;51.948;5.922;2022-12-07T07:05:14;101679.47;;;2.83;100.00
57568;BME280;43403;51.948;5.922;2022-12-07T07:07:42;101671.84;;;2.80;100.00
57568;BME280;43403;51.948;5.922;2022-12-07T07:10:29;101668.41;;;2.80;100.00
57568;BME280;43403;51.948;5.922;2022-12-07T07:12:55;101674.34;;;2.82;100.00
57568;BME280;43403;51.948;5.922;2022-12-07T07:15:23;101676.94;;;2.82;100.00
57568;BME280;43403;51.948;5.922;2022-12-07T07:17:49;101675.19;;;2.82;100.00
57568;BME280;43403;51.948;5.922;2022-12-07T07:20:16;101671.56;;;2.86;100.00
57568;BME280;43403;51.948;5.922;2022-12-07T07:22:42;101669.88;;;2.85;100.00
57568;BME280;43403;51.948;5.922;2022-12-07T07:25:09;101671.63;;;2.85;100.00
57568;BME280;43403;51.948;5.922;2022-12-07T07:27:35;101664.16;;;2.79;100.00
57568;BME280;43403;51.948;5.922;2022-12-07T07:30:02;101676.75;;;2.86;100.00
57568;BME280;43403;51.948;5.922;2022-12-07T07:32:29;101673.47;;;2.83;100.00
57568;BME280;43403;51.948;5.922;2022-12-07T07:34:56;101673.38;;;2.84;100.00
57568;BME280;43403;51.948;5.922;2022-12-07T07:37:23;101667.41;;;2.82;100.00
57568;BME280;43403;51.948;5.922;2022-12-07T07:39:49;101678.72;;;2.81;100.00
57568;BME280;43403;51.948;5.922;2022-12-07T07:42:16;101673.66;;;2.78;100.00
57568;BME280;43403;51.948;5.922;2022-12-07T07:44:42;101675.13;;;2.84;100.00
57568;BME280;43403;51.948;5.922;2022-12-07T07:47:09;101678.78;;;2.80;100.00
57568;BME280;43403;51.948;5.922;2022-12-07T07:49:36;101680.47;;;2.81;100.00
57568;BME280;43403;51.948;5.922;2022-12-07T07:52:02;101672.78;;;2.79;100.00
57568;BME280;43403;51.948;5.922;2022-12-07T07:54:29;101675.34;;;2.79;100.00
57568;BME280;43403;51.948;5.922;2022-12-07T07:56:56;101679.72;;;2.79;100.00
57568;BME280;43403;51.948;5.922;2022-12-07T07:59:23;101674.34;;;2.82;100.00
57568;BME280;43403;51.948;5.922;2022-12-07T08:01:49;101678.78;;;2.80;100.00
57568;BME280;43403;51.948;5.922;2022-12-07T08:04:16;101679.78;;;2.77;100.00
57568;BME280;43403;51.948;5.922;2022-12-07T08:06:42;101690.97;;;2.77;100.00
57568;BME280;43403;51.948;5.922;2022-12-07T08:09:09;101684.97;;;2.77;100.00
57568;BME280;43403;51.948;5.922;2022-12-07T08:11:36;101687.56;;;2.77;100.00
57568;BME280;43403;51.948;5.922;2022-12-07T08:14:03;101684.91;;;2.79;100.00
57568;BME280;43403;51.948;5.922;2022-12-07T08:16:29;101690.06;;;2.79;100.00
57568;BME280;43403;51.948;5.922;2022-12-07T08:18:56;101690.91;;;2.79;100.00
57568;BME280;43403;51.948;5.922;2022-12-07T08:21:22;101694.19;;;2.83;100.00
57568;BME280;43403;51.948;5.922;2022-12-07T08:23:49;101694.88;;;2.86;100.00
57568;BME280;43403;51.948;5.922;2022-12-07T08:26:16;101692.06;;;2.91;100.00
57568;BME280;43403;51.948;5.922;2022-12-07T08:28:43;101688.47;;;2.93;100.00
57568;BME280;43403;51.948;5.922;2022-12-07T08:31:14;101695.72;;;3.04;100.00
57568;BME280;43403;51.948;5.922;2022-12-07T08:33:41;101693.81;;;3.08;100.00
57568;BME280;43403;51.948;5.922;2022-12-07T08:36:10;101700.44;;;3.13;100.00
57568;BME280;43403;51.948;5.922;2022-12-07T08:38:39;101708.00;;;3.18;100.00
57568;BME280;43403;51.948;5.922;2022-12-07T08:41:06;101711.28;;;3.22;100.00
57568;BME280;43403;51.948;5.922;2022-12-07T08:43:33;101721.09;;;3.32;100.00
57568;BME280;43403;51.948;5.922;2022-12-07T08:46:06;101709.72;;;3.35;100.00
57568;BME280;43403;51.948;5.922;2022-12-07T08:48:36;101706.59;;;3.46;100.00
57568;BME280;43403;51.948;5.922;2022-12-07T08:51:04;101704.75;;;3.48;100.00
57568;BME280;43403;51.948;5.922;2022-12-07T08:53:33;101708.19;;;3.48;100.00
57568;BME280;43403;51.948;5.922;2022-12-07T08:56:00;101695.28;;;3.47;100.00
57568;BME280;43403;51.948;5.922;2022-12-07T08:58:27;101699.56;;;3.48;100.00
57568;BME280;43403;51.948;5.922;2022-12-07T09:00:54;101694.38;;;3.48;100.00
57568;BME280;43403;51.948;5.922;2022-12-07T09:03:20;101690.09;;;3.47;100.00
57568;BME280;43403;51.948;5.922;2022-12-07T09:05:47;101688.59;;;3.43;100.00
57568;BME280;43403;51.948;5.922;2022-12-07T09:08:14;101703.00;;;3.48;100.00
57568;BME280;43403;51.948;5.922;2022-12-07T09:10:40;101698.19;;;3.41;100.00
57568;BME280;43403;51.948;5.922;2022-12-07T09:13:07;101698.75;;;3.47;100.00
57568;BME280;43403;51.948;5.922;2022-12-07T09:15:33;101696.03;;;3.49;100.00
57568;BME280;43403;51.948;5.922;2022-12-07T09:18:00;101695.91;;;3.52;100.00
57568;BME280;43403;51.948;5.922;2022-12-07T09:20:26;101700.78;;;3.58;100.00
57568;BME280;43403;51.948;5.922;2022-12-07T09:22:53;101693.59;;;3.63;100.00
57568;BME280;43403;51.948;5.922;2022-12-07T09:25:20;101702.81;;;3.69;100.00
57568;BME280;43403;51.948;5.922;2022-12-07T09:27:46;101706.16;;;3.71;100.00
57568;BME280;43403;51.948;5.922;2022-12-07T09:30:13;101705.03;;;3.76;100.00
57568;BME280;43403;51.948;5.922;2022-12-07T09:32:40;101694.84;;;3.72;100.00
57568;BME280;43403;51.948;5.922;2022-12-07T09:35:06;101695.63;;;3.74;100.00
57568;BME280;43403;51.948;5.922;2022-12-07T09:37:33;101698.31;;;3.72;100.00
57568;BME280;43403;51.948;5.922;2022-12-07T09:40:03;101696.69;;;3.70;100.00
57568;BME280;43403;51.948;5.922;2022-12-07T09:42:43;101694.03;;;3.71;100.00
57568;BME280;43403;51.948;5.922;2022-12-07T09:45:24;101696.38;;;3.76;100.00
57568;BME280;43403;51.948;5.922;2022-12-07T09:47:51;101694.78;;;3.73;100.00
57568;BME280;43403;51.948;5.922;2022-12-07T09:50:23;101697.59;;;3.86;100.00
57568;BME280;43403;51.948;5.922;2022-12-07T09:52:52;101695.81;;;3.87;100.00
57568;BME280;43403;51.948;5.922;2022-12-07T09:55:28;101693.78;;;3.92;100.00
57568;BME280;43403;51.948;5.922;2022-12-07T09:57:55;101692.97;;;3.91;100.00
57568;BME280;43403;51.948;5.922;2022-12-07T10:00:23;101697.00;;;3.97;100.00
57568;BME280;43403;51.948;5.922;2022-12-07T10:02:55;101681.44;;;3.97;100.00
57568;BME280;43403;51.948;5.922;2022-12-07T10:05:27;101686.63;;;3.97;100.00
57568;BME280;43403;51.948;5.922;2022-12-07T10:07:55;101682.34;;;3.96;100.00
57568;BME280;43403;51.948;5.922;2022-12-07T10:10:29;101683.69;;;4.03;100.00
57568;BME280;43403;51.948;5.922;2022-12-07T10:13:08;101683.47;;;4.08;100.00
57568;BME280;43403;51.948;5.922;2022-12-07T10:21:15;101673.91;;;4.24;100.00
57568;BME280;43403;51.948;5.922;2022-12-07T10:24:02;101673.56;;;4.30;100.00
57568;BME280;43403;51.948;5.922;2022-12-07T10:26:33;101666.69;;;4.29;100.00
57568;BME280;43403;51.948;5.922;2022-12-07T10:29:28;101664.59;;;4.36;100.00
57568;BME280;43403;51.948;5.922;2022-12-07T10:32:06;101664.31;;;4.41;100.00
57568;BME280;43403;51.948;5.922;2022-12-07T10:34:49;101654.69;;;4.43;100.00
57568;BME280;43403;51.948;5.922;2022-12-07T10:37:18;101653.25;;;4.53;100.00
57568;BME280;43403;51.948;5.922;2022-12-07T10:39:49;101652.59;;;4.49;100.00
57568;BME280;43403;51.948;5.922;2022-12-07T10:45:08;101645.59;;;4.66;100.00
57568;BME280;43403;51.948;5.922;2022-12-07T10:47:47;101644.31;;;4.73;100.00
57568;BME280;43403;51.948;5.922;2022-12-07T10:53:11;101640.25;;;4.83;100.00
57568;BME280;43403;51.948;5.922;2022-12-07T11:06:46;101626.69;;;5.37;100.00
57568;BME280;43403;51.948;5.922;2022-12-07T11:09:32;101625.56;;;5.41;100.00
57568;BME280;43403;51.948;5.922;2022-12-07T11:12:59;101622.50;;;5.49;100.00
57568;BME280;43403;51.948;5.922;2022-12-07T11:15:53;101620.53;;;5.52;100.00
57568;BME280;43403;51.948;5.922;2022-12-07T11:18:31;101619.91;;;5.49;100.00
57568;BME280;43403;51.948;5.922;2022-12-07T11:24:06;101622.13;;;5.55;100.00
57568;BME280;43403;51.948;5.922;2022-12-07T11:29:49;101604.56;;;5.59;100.00
57568;BME280;43403;51.948;5.922;2022-12-07T11:35:03;101597.50;;;5.61;100.00
57568;BME280;43403;51.948;5.922;2022-12-07T11:37:35;101602.03;;;5.57;100.00
57568;BME280;43403;51.948;5.922;2022-12-07T11:40:15;101602.56;;;5.62;100.00
57568;BME280;43403;51.948;5.922;2022-12-07T11:43:15;101599.72;;;5.67;100.00
57568;BME280;43403;51.948;5.922;2022-12-07T11:45:52;101586.41;;;5.71;100.00
57568;BME280;43403;51.948;5.922;2022-12-07T11:48:28;101595.88;;;5.72;100.00
57568;BME280;43403;51.948;5.922;2022-12-07T11:50:57;101589.81;;;5.72;100.00
57568;BME280;43403;51.948;5.922;2022-12-07T11:53:31;101589.19;;;5.68;100.00
57568;BME280;43403;51.948;5.922;2022-12-07T11:56:12;101585.47;;;5.72;100.00
57568;BME280;43403;51.948;5.922;2022-12-07T11:58:47;101586.56;;;5.83;100.00
57568;BME280;43403;51.948;5.922;2022-12-07T12:06:37;101569.50;;;6.06;100.00
57568;BME280;43403;51.948;5.922;2022-12-07T12:09:16;101576.06;;;6.11;100.00
57568;BME280;43403;51.948;5.922;2022-12-07T12:16:02;101573.63;;;6.23;100.00
57568;BME280;43403;51.948;5.922;2022-12-07T12:18:46;101572.59;;;6.25;100.00
57568;BME280;43403;51.948;5.922;2022-12-07T12:21:20;101557.06;;;6.24;100.00
57568;BME280;43403;51.948;5.922;2022-12-07T12:23:50;101557.56;;;6.16;100.00
57568;BME280;43403;51.948;5.922;2022-12-07T12:26:24;101566.59;;;6.10;100.00
57568;BME280;43403;51.948;5.922;2022-12-07T12:29:22;101559.44;;;6.14;100.00
57568;BME280;43403;51.948;5.922;2022-12-07T12:32:17;101551.63;;;6.27;100.00
57568;BME280;43403;51.948;5.922;2022-12-07T12:37:40;101553.69;;;6.49;100.00
57568;BME280;43403;51.948;5.922;2022-12-07T12:45:29;101543.28;;;6.75;100.00
57568;BME280;43403;51.948;5.922;2022-12-07T12:50:35;101542.84;;;6.68;100.00
57568;BME280;43403;51.948;5.922;2022-12-07T12:53:24;101541.78;;;6.58;100.00
57568;BME280;43403;51.948;5.922;2022-12-07T13:01:48;101527.94;;;6.57;100.00
57568;BME280;43403;51.948;5.922;2022-12-07T13:04:38;101525.22;;;6.59;100.00
57568;BME280;43403;51.948;5.922;2022-12-07T13:07:10;101519.28;;;6.57;100.00
57568;BME280;43403;51.948;5.922;2022-12-07T13:09:42;101524.59;;;6.68;100.00
57568;BME280;43403;51.948;5.922;2022-12-07T13:12:14;101510.72;;;6.67;100.00
57568;BME280;43403;51.948;5.922;2022-12-07T13:14:52;101510.53;;;6.70;100.00
57568;BME280;43403;51.948;5.922;2022-12-07T13:19:58;101507.50;;;6.51;100.00
57568;BME280;43403;51.948;5.922;2022-12-07T13:25:10;101508.63;;;6.60;100.00
57568;BME280;43403;51.948;5.922;2022-12-07T13:27:39;101504.47;;;6.57;100.00
57568;BME280;43403;51.948;5.922;2022-12-07T13:30:20;101496.13;;;6.65;100.00
57568;BME280;43403;51.948;5.922;2022-12-07T13:32:52;101489.97;;;6.66;100.00
57568;BME280;43403;51.948;5.922;2022-12-07T13:35:34;101489.53;;;6.72;100.00
57568;BME280;43403;51.948;5.922;2022-12-07T13:38:04;101488.38;;;6.76;100.00
57568;BME280;43403;51.948;5.922;2022-12-07T13:40:31;101481.00;;;6.83;100.00
57568;BME280;43403;51.948;5.922;2022-12-07T13:43:00;101472.94;;;6.86;100.00
57568;BME280;43403;51.948;5.922;2022-12-07T13:45:29;101481.72;;;6.85;100.00
57568;BME280;43403;51.948;5.922;2022-12-07T13:50:55;101463.28;;;6.75;100.00
57568;BME280;43403;51.948;5.922;2022-12-07T13:53:23;101468.38;;;6.77;100.00
57568;BME280;43403;51.948;5.922;2022-12-07T13:55:50;101467.84;;;6.71;100.00
57568;BME280;43403;51.948;5.922;2022-12-07T13:58:21;101458.97;;;6.74;100.00
57568;BME280;43403;51.948;5.922;2022-12-07T14:00:48;101464.53;;;6.69;100.00
57568;BME280;43403;51.948;5.922;2022-12-07T14:05:43;101458.25;;;6.85;100.00
57568;BME280;43403;51.948;5.922;2022-12-07T14:10:55;101457.34;;;6.73;100.00
57568;BME280;43403;51.948;5.922;2022-12-07T14:13:32;101452.13;;;6.73;100.00
57568;BME280;43403;51.948;5.922;2022-12-07T14:16:25;101453.91;;;6.72;100.00
57568;BME280;43403;51.948;5.922;2022-12-07T14:18:56;101454.41;;;6.65;100.00
57568;BME280;43403;51.948;5.922;2022-12-07T14:21:26;101445.44;;;6.69;100.00
57568;BME280;43403;51.948;5.922;2022-12-07T14:26:39;101441.09;;;6.57;100.00
57568;BME280;43403;51.948;5.922;2022-12-07T14:31:52;101443.78;;;6.55;100.00
57568;BME280;43403;51.948;5.922;2022-12-07T14:34:21;101440.84;;;6.60;100.00
57568;BME280;43403;51.948;5.922;2022-12-07T14:36:48;101442.34;;;6.51;100.00
57568;BME280;43403;51.948;5.922;2022-12-07T14:39:14;101443.50;;;6.47;100.00
57568;BME280;43403;51.948;5.922;2022-12-07T14:41:41;101444.31;;;6.47;100.00
57568;BME280;43403;51.948;5.922;2022-12-07T14:44:20;101442.44;;;6.49;100.00
57568;BME280;43403;51.948;5.922;2022-12-07T14:46:51;101436.59;;;6.46;100.00
57568;BME280;43403;51.948;5.922;2022-12-07T14:49:37;101442.00;;;6.43;100.00
57568;BME280;43403;51.948;5.922;2022-12-07T14:52:05;101436.19;;;6.39;100.00
57568;BME280;43403;51.948;5.922;2022-12-07T14:54:57;101445.66;;;6.27;100.00
57568;BME280;43403;51.948;5.922;2022-12-07T14:57:24;101429.72;;;6.32;100.00